createdAt,value
2018-11-23T00:00:24.326Z,3.40
2018-11-23T00:02:53.303Z,3.40
2018-11-23T00:05:22.318Z,3.50
2018-11-23T00:07:51.180Z,3.40
2018-11-23T00:10:21.067Z,3.40
2018-11-23T00:12:49.832Z,3.40
2018-11-23T00:15:20.514Z,3.20
2018-11-23T00:17:49.069Z,3.30
2018-11-23T00:20:18.965Z,3.30
2018-11-23T00:22:47.497Z,3.40
2018-11-23T00:25:18.364Z,3.30
2018-11-23T00:27:46.980Z,3.30
2018-11-23T00:30:18.226Z,3.40
2018-11-23T00:32:47.168Z,3.50
2018-11-23T00:35:18.274Z,3.40
2018-11-23T00:37:47.264Z,3.70
2018-11-23T00:40:21.987Z,3.90
2018-11-23T00:42:50.882Z,3.80
2018-11-23T00:45:19.417Z,3.50
2018-11-23T00:47:48.650Z,3.40
2018-11-23T00:50:18.535Z,3.40
2018-11-23T00:52:47.564Z,3.40
2018-11-23T00:55:17.299Z,3.30
2018-11-23T00:57:45.879Z,3.20
2018-11-23T01:00:22.639Z,3.10
2018-11-23T01:02:51.473Z,3.10
2018-11-23T01:05:20.039Z,3.40
2018-11-23T01:07:49.047Z,3.00
2018-11-23T01:10:18.826Z,3.20
2018-11-23T01:12:48.379Z,3.10
2018-11-23T01:15:17.053Z,3.10
2018-11-23T01:17:45.609Z,3.00
2018-11-23T01:20:17.103Z,2.90
2018-11-23T01:22:45.813Z,2.90
2018-11-23T01:25:15.628Z,2.90
2018-11-23T01:27:45.041Z,2.80
2018-11-23T01:30:16.292Z,3.00
2018-11-23T01:32:45.093Z,3.10
2018-11-23T01:35:13.823Z,3.00
2018-11-23T01:37:42.516Z,3.30
2018-11-23T01:40:13.543Z,3.30
2018-11-23T01:42:42.134Z,3.00
2018-11-23T01:45:11.415Z,3.10
2018-11-23T01:47:40.278Z,3.10
2018-11-23T01:50:10.820Z,3.10
2018-11-23T01:52:39.462Z,3.20
2018-11-23T01:55:09.568Z,2.90
2018-11-23T01:57:38.650Z,3.10
2018-11-23T02:00:08.629Z,3.00
2018-11-23T02:02:37.141Z,3.30
2018-11-23T02:05:06.247Z,3.30
2018-11-23T02:07:35.010Z,3.10
2018-11-23T02:10:03.578Z,3.20
2018-11-23T02:12:32.272Z,3.50
2018-11-23T02:15:02.802Z,3.50
2018-11-23T02:17:32.538Z,3.40
2018-11-23T02:20:01.184Z,3.70
2018-11-23T02:22:29.716Z,3.70
2018-11-23T02:24:58.248Z,3.60
2018-11-23T02:27:26.731Z,3.60
2018-11-23T02:29:55.301Z,3.30
2018-11-23T02:32:23.873Z,3.20
2018-11-23T02:34:52.402Z,3.30
2018-11-23T02:37:20.937Z,3.30
2018-11-23T02:39:49.472Z,3.10
2018-11-23T02:42:17.981Z,3.10
2018-11-23T02:44:46.560Z,3.40
2018-11-23T02:47:15.424Z,3.30
2018-11-23T02:49:44.179Z,3.30
2018-11-23T02:52:12.692Z,3.70
2018-11-23T02:54:41.780Z,3.90
2018-11-23T02:57:10.244Z,3.70
2018-11-23T02:59:38.713Z,3.60
2018-11-23T03:02:07.300Z,3.40
2018-11-23T03:04:35.906Z,3.50
2018-11-23T03:07:04.496Z,3.40
2018-11-23T03:09:33.194Z,3.50
2018-11-23T03:12:01.678Z,3.20
2018-11-23T03:14:30.207Z,3.20
2018-11-23T03:16:58.752Z,3.30
2018-11-23T03:19:27.402Z,3.40
2018-11-23T03:21:56.022Z,3.30
2018-11-23T03:24:24.525Z,3.30
2018-11-23T03:26:53.010Z,3.10
2018-11-23T03:29:21.701Z,3.60
2018-11-23T03:31:50.376Z,3.60
2018-11-23T03:34:18.916Z,3.70
2018-11-23T03:36:47.435Z,4.10
2018-11-23T03:39:15.947Z,3.60
2018-11-23T03:41:44.451Z,3.60
2018-11-23T03:44:12.901Z,3.50
2018-11-23T03:46:41.401Z,3.50
2018-11-23T03:49:10.067Z,3.40
2018-11-23T03:51:38.603Z,3.40
2018-11-23T03:54:07.130Z,3.30
2018-11-23T03:56:35.666Z,3.40
2018-11-23T03:59:04.229Z,3.20
2018-11-23T04:01:32.779Z,3.40
2018-11-23T04:04:01.397Z,3.50
2018-11-23T04:06:29.921Z,3.40
2018-11-23T04:08:58.624Z,3.50
2018-11-23T04:11:27.117Z,3.90
2018-11-23T04:13:55.575Z,3.30
2018-11-23T04:16:24.041Z,3.20
2018-11-23T04:18:52.538Z,3.20
2018-11-23T04:21:21.007Z,3.00
2018-11-23T04:23:49.547Z,3.00
2018-11-23T04:26:24.609Z,3.10
2018-11-23T04:28:47.640Z,2.90
2018-11-23T04:31:16.169Z,2.90
2018-11-23T04:33:44.696Z,3.00
2018-11-23T04:36:13.837Z,3.30
2018-11-23T04:38:42.547Z,3.70
2018-11-23T04:41:11.365Z,3.40
2018-11-23T04:43:40.035Z,3.50
2018-11-23T04:46:08.626Z,3.40
2018-11-23T04:48:37.206Z,3.60
2018-11-23T04:51:06.036Z,3.30
2018-11-23T04:58:11.050Z,3.10
2018-11-23T05:00:39.588Z,3.20
2018-11-23T05:03:08.472Z,3.20
2018-11-23T05:05:37.026Z,3.10
2018-11-23T05:08:05.935Z,3.10
2018-11-23T05:10:34.425Z,3.00
2018-11-23T05:13:03.008Z,3.20
2018-11-23T05:15:31.626Z,2.90
2018-11-23T05:18:00.276Z,3.00
2018-11-23T05:20:28.813Z,3.00
2018-11-23T05:22:57.328Z,2.90
2018-11-23T05:25:26.707Z,2.70
2018-11-23T05:27:55.149Z,2.80
2018-11-23T05:30:23.655Z,2.70
2018-11-23T05:32:52.179Z,2.70
2018-11-23T05:35:20.693Z,2.70
2018-11-23T05:37:49.251Z,2.50
2018-11-23T05:40:19.171Z,2.50
2018-11-23T05:42:47.894Z,2.60
2018-11-23T05:45:17.874Z,2.50
2018-11-23T05:47:46.931Z,2.50
2018-11-23T05:50:17.037Z,2.80
2018-11-23T05:52:46.013Z,2.80
2018-11-23T05:55:14.810Z,2.50
2018-11-23T05:57:43.537Z,3.00
2018-11-23T06:00:14.967Z,2.80
2018-11-23T06:02:43.801Z,2.60
2018-11-23T06:05:12.377Z,2.70
2018-11-23T06:07:40.910Z,2.90
2018-11-23T06:10:12.368Z,2.80
2018-11-23T06:12:41.122Z,2.80
2018-11-23T06:15:13.528Z,2.60
2018-11-23T06:17:42.341Z,2.90
2018-11-23T06:20:13.408Z,2.80
2018-11-23T06:22:42.310Z,2.80
2018-11-23T06:25:16.886Z,2.90
2018-11-23T06:27:45.423Z,2.70
2018-11-23T06:30:14.017Z,2.90
2018-11-23T06:32:53.749Z,3.00
2018-11-23T06:35:22.331Z,2.80
2018-11-23T06:37:51.756Z,3.00
2018-11-23T06:40:20.363Z,3.00
2018-11-23T06:42:49.116Z,2.90
2018-11-23T06:45:17.772Z,2.90
2018-11-23T06:47:46.334Z,2.90
2018-11-23T06:50:15.806Z,2.80
2018-11-23T06:52:45.426Z,3.00
2018-11-23T06:55:14.626Z,2.60
2018-11-23T06:57:43.364Z,2.70
2018-11-23T07:00:14.983Z,2.70
2018-11-23T07:02:45.121Z,2.80
2018-11-23T07:05:14.566Z,2.50
2018-11-23T07:07:43.979Z,2.60
2018-11-23T07:10:13.256Z,2.60
2018-11-23T07:12:42.477Z,2.80
2018-11-23T07:15:12.715Z,2.60
2018-11-23T07:17:42.667Z,2.70
2018-11-23T07:20:13.977Z,2.80
2018-11-23T07:22:43.812Z,2.80
2018-11-23T07:25:14.351Z,2.70
2018-11-23T07:27:43.704Z,2.80
2018-11-23T07:30:17.558Z,2.80
2018-11-23T07:32:46.913Z,2.80
2018-11-23T07:35:16.562Z,2.80
2018-11-23T07:37:46.270Z,2.90
2018-11-23T07:40:29.096Z,2.80
2018-11-23T07:42:58.510Z,2.80
2018-11-23T07:45:28.132Z,3.00
2018-11-23T07:47:57.616Z,3.00
2018-11-23T07:50:27.244Z,3.00
2018-11-23T07:52:56.747Z,3.10
2018-11-23T07:55:26.058Z,3.20
2018-11-23T07:57:55.656Z,3.00
2018-11-23T08:00:26.010Z,3.20
2018-11-23T08:02:56.370Z,3.30
2018-11-23T08:05:25.854Z,3.30
2018-11-23T08:07:55.283Z,3.40
2018-11-23T08:10:23.803Z,3.20
2018-11-23T08:12:53.669Z,3.40
2018-11-23T08:15:26.497Z,3.50
2018-11-23T08:17:56.168Z,3.50
2018-11-23T08:20:26.241Z,3.30
2018-11-23T08:22:55.462Z,3.50
2018-11-23T08:25:25.836Z,3.60
2018-11-23T08:27:56.163Z,3.60
2018-11-23T08:30:27.832Z,3.70
2018-11-23T08:32:58.991Z,3.60
2018-11-23T08:35:33.608Z,4.00
2018-11-23T08:38:03.212Z,3.90
2018-11-23T08:40:32.492Z,3.80
2018-11-23T08:43:02.595Z,3.80
2018-11-23T08:45:31.770Z,3.90
2018-11-23T08:48:01.643Z,4.10
2018-11-23T08:50:31.359Z,4.10
2018-11-23T08:53:00.528Z,4.30
2018-11-23T08:55:29.610Z,4.20
2018-11-23T08:57:58.983Z,4.30
2018-11-23T09:00:29.161Z,4.80
2018-11-23T09:03:01.162Z,4.60
2018-11-23T09:05:30.409Z,5.00
2018-11-23T09:07:59.987Z,5.10
2018-11-23T09:10:30.749Z,4.80
2018-11-23T09:13:01.762Z,4.60
2018-11-23T09:15:31.030Z,4.90
2018-11-23T09:18:00.555Z,4.80
2018-11-23T09:20:29.812Z,4.60
2018-11-23T09:22:59.121Z,5.10
2018-11-23T09:25:28.450Z,5.10
2018-11-23T09:27:57.897Z,5.00
2018-11-23T09:30:27.777Z,5.20
2018-11-23T09:32:57.961Z,5.00
2018-11-23T09:35:28.075Z,5.20
2018-11-23T09:37:57.149Z,5.10
2018-11-23T09:40:28.556Z,5.60
2018-11-23T09:42:58.093Z,5.50
2018-11-23T09:45:29.522Z,5.60
2018-11-23T09:48:00.220Z,5.70
2018-11-23T09:50:29.641Z,6.30
2018-11-23T09:53:00.151Z,7.10
2018-11-23T09:55:30.201Z,7.70
2018-11-23T09:57:59.508Z,7.30
2018-11-23T10:00:31.293Z,7.80
2018-11-23T10:03:00.941Z,7.50
2018-11-23T10:05:30.933Z,7.30
2018-11-23T10:08:01.283Z,7.20
2018-11-23T10:10:30.723Z,7.20
2018-11-23T10:13:00.114Z,7.30
2018-11-23T10:15:30.614Z,7.40
2018-11-23T10:17:59.771Z,7.60
2018-11-23T10:20:30.142Z,8.00
2018-11-23T10:22:59.278Z,8.60
2018-11-23T10:25:30.346Z,9.00
2018-11-23T10:27:59.511Z,8.60
2018-11-23T10:30:29.902Z,8.20
2018-11-23T10:33:00.860Z,7.90
2018-11-23T10:35:29.975Z,7.60
2018-11-23T10:38:00.311Z,7.50
2018-11-23T10:40:31.221Z,7.30
2018-11-23T10:43:00.517Z,7.60
2018-11-23T10:45:30.845Z,7.70
2018-11-23T10:48:00.932Z,7.40
2018-11-23T10:50:31.446Z,7.30
2018-11-23T10:53:00.876Z,7.40
2018-11-23T10:55:31.358Z,7.20
2018-11-23T10:58:00.638Z,7.30
2018-11-23T11:00:34.769Z,7.40
2018-11-23T11:03:13.918Z,7.30
2018-11-23T11:05:48.017Z,7.60
2018-11-23T11:08:17.463Z,7.70
2018-11-23T11:10:47.667Z,7.60
2018-11-23T11:13:16.929Z,7.70
2018-11-23T11:15:46.183Z,7.60
2018-11-23T11:18:15.133Z,7.60
2018-11-23T11:20:44.297Z,7.50
2018-11-23T11:23:13.428Z,7.70
2018-11-23T11:25:42.829Z,7.80
2018-11-23T11:28:11.964Z,8.00
2018-11-23T11:30:41.235Z,8.20
2018-11-23T11:33:10.283Z,7.90
2018-11-23T11:35:39.427Z,8.00
2018-11-23T11:38:08.503Z,7.90
2018-11-23T11:40:37.833Z,8.30
2018-11-23T11:43:07.133Z,8.40
2018-11-23T11:45:36.223Z,8.30
2018-11-23T11:48:05.397Z,8.30
2018-11-23T11:50:34.701Z,8.10
2018-11-23T11:53:03.910Z,8.10
2018-11-23T11:55:33.026Z,8.00
2018-11-23T11:58:02.344Z,7.80
2018-11-23T12:00:31.698Z,7.90
2018-11-23T12:03:00.972Z,7.90
2018-11-23T12:05:30.068Z,8.20
2018-11-23T12:07:59.044Z,8.70
2018-11-23T12:10:27.975Z,8.20
2018-11-23T12:12:57.026Z,8.20
2018-11-23T12:15:26.120Z,8.20
2018-11-23T12:17:55.186Z,8.30
2018-11-23T12:20:25.086Z,8.40
2018-11-23T12:22:54.290Z,8.50
2018-11-23T12:25:23.859Z,9.00
2018-11-23T12:27:53.026Z,9.40
2018-11-23T12:30:22.498Z,9.10
2018-11-23T12:32:52.350Z,9.50
2018-11-23T12:35:22.359Z,9.10
2018-11-23T12:37:51.699Z,9.00
2018-11-23T12:40:21.656Z,8.80
2018-11-23T12:42:50.632Z,8.70
2018-11-23T12:45:21.066Z,8.40
2018-11-23T12:47:50.356Z,8.70
2018-11-23T12:50:21.052Z,8.70
2018-11-23T12:52:50.282Z,8.30
2018-11-23T12:55:19.979Z,8.70
2018-11-23T12:57:49.961Z,8.40
2018-11-23T13:00:22.084Z,8.50
2018-11-23T13:02:52.764Z,8.40
2018-11-23T13:05:22.666Z,8.60
2018-11-23T13:07:52.555Z,8.60
2018-11-23T13:10:22.495Z,8.70
2018-11-23T13:12:51.589Z,8.50
2018-11-23T13:15:21.193Z,8.60
2018-11-23T13:17:50.301Z,8.40
2018-11-23T13:20:19.628Z,8.50
2018-11-23T13:22:48.630Z,9.00
2018-11-23T13:25:25.729Z,8.60
2018-11-23T13:27:55.217Z,8.90
2018-11-23T13:30:26.751Z,9.10
2018-11-23T13:32:56.550Z,8.90
2018-11-23T13:35:25.549Z,8.70
2018-11-23T13:37:54.673Z,8.70
2018-11-23T13:40:25.015Z,8.50
2018-11-23T13:42:55.231Z,8.80
2018-11-23T13:45:25.769Z,8.60
2018-11-23T13:47:55.140Z,8.70
2018-11-23T13:50:24.799Z,8.80
2018-11-23T13:52:55.858Z,8.80
2018-11-23T13:55:25.359Z,9.20
2018-11-23T13:57:54.562Z,9.20
2018-11-23T14:00:25.369Z,8.80
2018-11-23T14:02:54.546Z,8.80
2018-11-23T14:05:25.486Z,8.90
2018-11-23T14:07:55.932Z,9.10
2018-11-23T14:10:26.108Z,8.90
2018-11-23T14:12:55.290Z,8.80
2018-11-23T14:15:25.660Z,8.90
2018-11-23T14:17:55.603Z,9.20
2018-11-23T14:20:25.914Z,8.80
2018-11-23T14:22:55.224Z,8.90
2018-11-23T14:25:25.604Z,8.50
2018-11-23T14:27:55.243Z,8.90
2018-11-23T14:30:27.584Z,8.50
2018-11-23T14:32:56.778Z,8.50
2018-11-23T14:35:27.430Z,8.70
2018-11-23T14:37:57.377Z,8.50
2018-11-23T14:40:26.535Z,8.60
2018-11-23T14:42:56.226Z,8.60
2018-11-23T14:45:28.638Z,8.20
2018-11-23T14:47:58.846Z,8.20
2018-11-23T14:50:29.415Z,8.20
2018-11-23T14:52:59.182Z,8.20
2018-11-23T14:55:28.595Z,8.10
2018-11-23T14:57:58.271Z,8.00
2018-11-23T15:00:34.944Z,8.40
2018-11-23T15:03:05.160Z,8.00
2018-11-23T15:05:34.508Z,7.90
2018-11-23T15:08:03.597Z,8.00
2018-11-23T15:10:33.700Z,7.80
2018-11-23T15:13:03.799Z,7.80
2018-11-23T15:15:35.198Z,7.90
2018-11-23T15:18:04.582Z,7.70
2018-11-23T15:20:35.430Z,7.80
2018-11-23T15:23:07.247Z,8.00
2018-11-23T15:25:36.985Z,7.50
2018-11-23T15:28:07.101Z,7.60
2018-11-23T15:30:37.343Z,7.50
2018-11-23T15:36:06.773Z,7.70
2018-11-23T15:38:35.649Z,7.30
2018-11-23T15:41:04.766Z,7.20
2018-11-23T15:43:34.134Z,7.20
2018-11-23T15:46:03.438Z,7.60
2018-11-23T15:48:32.931Z,7.80
2018-11-23T15:51:07.616Z,7.50
2018-11-23T15:53:37.031Z,7.30
2018-11-23T15:56:07.071Z,7.20
2018-11-23T15:58:36.389Z,7.10
2018-11-23T16:01:05.652Z,7.40
2018-11-23T16:03:34.963Z,7.10
2018-11-23T16:06:09.125Z,7.00
2018-11-23T16:08:38.447Z,6.80
2018-11-23T16:11:08.950Z,6.70
2018-11-23T16:13:38.196Z,6.50
2018-11-23T16:16:07.887Z,6.50
2018-11-23T16:18:36.696Z,6.60
2018-11-23T16:21:06.069Z,6.40
2018-11-23T16:23:35.104Z,6.30
2018-11-23T16:26:04.162Z,6.10
2018-11-23T16:28:33.161Z,6.00
2018-11-23T16:31:02.596Z,6.20
2018-11-23T16:33:31.117Z,6.40
2018-11-23T16:36:00.603Z,6.20
2018-11-23T16:38:29.727Z,6.40
2018-11-23T16:40:58.552Z,6.10
2018-11-23T16:43:27.669Z,6.10
2018-11-23T16:45:56.398Z,5.90
2018-11-23T16:48:25.041Z,6.10
2018-11-23T16:50:53.695Z,5.80
2018-11-23T16:53:22.187Z,6.00
2018-11-23T16:55:50.805Z,5.80
2018-11-23T16:58:19.443Z,5.90
2018-11-23T17:00:48.358Z,5.80
2018-11-23T17:03:19.199Z,6.00
2018-11-23T17:05:49.187Z,5.70
2018-11-23T17:08:17.789Z,5.70
2018-11-23T17:10:46.305Z,5.80
2018-11-23T17:13:14.865Z,5.50
2018-11-23T17:15:43.445Z,5.80
2018-11-23T17:18:12.020Z,5.70
2018-11-23T17:20:40.927Z,5.70
2018-11-23T17:23:10.489Z,5.70
2018-11-23T17:25:39.113Z,5.50
2018-11-23T17:28:08.871Z,5.40
2018-11-23T17:30:37.816Z,5.50
2018-11-23T17:33:06.373Z,5.50
2018-11-23T17:35:34.962Z,5.60
2018-11-23T17:38:03.510Z,5.40
2018-11-23T17:40:35.796Z,5.30
2018-11-23T17:43:04.451Z,5.40
2018-11-23T17:45:33.707Z,5.30
2018-11-23T17:48:02.525Z,5.20
2018-11-23T17:50:32.465Z,5.00
2018-11-23T17:53:01.118Z,5.50
2018-11-23T17:55:29.808Z,5.30
2018-11-23T17:57:58.704Z,5.30
2018-11-23T18:00:38.876Z,5.20
2018-11-23T18:03:02.003Z,5.10
2018-11-23T18:05:31.383Z,5.30
2018-11-23T18:08:00.674Z,5.10
2018-11-23T18:10:30.433Z,5.20
2018-11-23T18:12:59.540Z,5.20
2018-11-23T18:15:29.493Z,5.00
2018-11-23T18:17:59.096Z,5.00
2018-11-23T18:20:28.504Z,5.10
2018-11-23T18:22:57.766Z,5.20
2018-11-23T18:25:28.540Z,5.20
2018-11-23T18:28:02.090Z,5.10
2018-11-23T18:30:33.339Z,5.30
2018-11-23T18:33:06.285Z,5.20
2018-11-23T18:35:34.799Z,5.20
2018-11-23T18:38:03.391Z,4.90
2018-11-23T18:40:37.104Z,5.20
2018-11-23T18:43:00.599Z,5.20
2018-11-23T18:45:29.180Z,4.80
2018-11-23T18:47:57.761Z,5.00
2018-11-23T18:50:26.372Z,5.00
2018-11-23T18:52:54.963Z,4.90
2018-11-23T18:55:23.588Z,4.70
2018-11-23T18:57:52.198Z,4.80
2018-11-23T19:00:20.824Z,5.10
2018-11-23T19:02:49.409Z,5.10
2018-11-23T19:05:22.238Z,5.00
2018-11-23T19:07:50.812Z,5.10
2018-11-23T19:10:19.413Z,5.30
2018-11-23T19:12:48.220Z,5.20
2018-11-23T19:15:25.351Z,5.10
2018-11-23T19:17:46.828Z,4.90
2018-11-23T19:20:16.604Z,5.30
2018-11-23T19:22:47.589Z,5.30
2018-11-23T19:25:16.553Z,5.10
2018-11-23T19:27:45.320Z,5.20
2018-11-23T19:30:15.649Z,5.30
2018-11-23T19:32:44.518Z,5.30
2018-11-23T19:35:13.389Z,5.30
2018-11-23T19:37:41.988Z,5.30
2018-11-23T19:40:12.807Z,5.30
2018-11-23T19:42:43.059Z,5.30
2018-11-23T19:45:17.500Z,5.40
2018-11-23T19:47:47.175Z,5.30
2018-11-23T19:50:17.737Z,5.20
2018-11-23T19:52:46.704Z,5.10
2018-11-23T19:55:28.951Z,5.20
2018-11-23T19:57:57.826Z,4.90
2018-11-23T20:00:27.489Z,4.90
2018-11-23T20:02:56.048Z,5.00
2018-11-23T20:05:24.587Z,4.90
2018-11-23T20:07:54.568Z,5.00
2018-11-23T20:10:23.822Z,4.90
2018-11-23T20:12:56.395Z,5.30
2018-11-23T20:15:25.102Z,5.20
2018-11-23T20:17:53.858Z,5.00
2018-11-23T20:20:22.444Z,5.00
2018-11-23T20:22:51.469Z,5.00
2018-11-23T20:25:20.904Z,5.00
2018-11-23T20:27:50.703Z,5.10
2018-11-23T20:30:19.690Z,5.00
2018-11-23T20:32:48.830Z,5.00
2018-11-23T20:35:21.483Z,5.00
2018-11-23T20:37:50.727Z,4.90
2018-11-23T20:40:20.529Z,4.70
2018-11-23T20:42:49.342Z,4.60
2018-11-23T20:45:18.248Z,5.00
2018-11-23T20:47:46.944Z,5.10
2018-11-23T20:50:16.467Z,5.00
2018-11-23T20:52:45.176Z,5.10
2018-11-23T20:55:15.062Z,5.00
2018-11-23T20:57:43.632Z,5.10
2018-11-23T21:00:14.401Z,4.90
2018-11-23T21:02:43.714Z,5.00
2018-11-23T21:05:13.592Z,5.10
2018-11-23T21:07:42.110Z,5.20
2018-11-23T21:10:20.087Z,4.90
2018-11-23T21:12:43.924Z,4.80
2018-11-23T21:15:15.566Z,5.10
2018-11-23T21:17:44.125Z,4.70
2018-11-23T21:20:12.820Z,4.70
2018-11-23T21:22:41.384Z,4.90
2018-11-23T21:25:10.552Z,4.90
2018-11-23T21:27:39.515Z,4.70
2018-11-23T21:30:22.118Z,4.60
2018-11-23T21:32:51.328Z,4.70
2018-11-23T21:35:20.030Z,4.50
2018-11-23T21:37:49.669Z,4.40
2018-11-23T21:40:18.451Z,4.90
2018-11-23T21:42:47.015Z,4.90
2018-11-23T21:45:16.638Z,4.50
2018-11-23T21:47:45.285Z,4.50
2018-11-23T21:50:16.605Z,4.40
2018-11-23T21:52:45.266Z,4.50
2018-11-23T21:55:15.734Z,4.50
2018-11-23T21:57:44.325Z,4.50
2018-11-23T22:00:13.900Z,4.60
2018-11-23T22:02:42.795Z,4.50
2018-11-23T22:05:11.488Z,4.30
2018-11-23T22:07:40.014Z,4.40
2018-11-23T22:10:15.465Z,4.60
2018-11-23T22:12:44.063Z,4.50
2018-11-23T22:15:21.444Z,4.40
2018-11-23T22:17:50.634Z,4.50
2018-11-23T22:20:20.229Z,4.60
2018-11-23T22:22:48.767Z,4.20
2018-11-23T22:25:18.303Z,4.60
2018-11-23T22:27:46.893Z,4.50
2018-11-23T22:30:32.180Z,4.20
2018-11-23T22:33:00.722Z,4.20
2018-11-23T22:35:30.130Z,4.10
2018-11-23T22:37:58.773Z,4.10
2018-11-23T22:40:27.663Z,4.30
2018-11-23T22:42:58.354Z,4.30
2018-11-23T22:45:27.038Z,4.30
2018-11-23T22:47:55.963Z,4.00
2018-11-23T22:50:24.962Z,4.00
2018-11-23T22:52:53.808Z,4.20
2018-11-23T22:55:22.814Z,4.00
2018-11-23T22:57:52.810Z,3.90
2018-11-23T23:00:26.626Z,3.90
2018-11-23T23:02:56.160Z,3.90
2018-11-23T23:05:25.946Z,3.80
2018-11-23T23:08:06.740Z,4.00
2018-11-23T23:10:43.580Z,3.90
2018-11-23T23:13:13.272Z,3.90
2018-11-23T23:15:43.211Z,3.80
2018-11-23T23:18:15.188Z,3.90
2018-11-23T23:20:44.267Z,3.80
2018-11-23T23:23:13.527Z,3.80
2018-11-23T23:25:42.625Z,3.80
2018-11-23T23:28:11.718Z,3.80
2018-11-23T23:30:41.349Z,4.00
2018-11-23T23:33:10.591Z,3.90
2018-11-23T23:35:39.798Z,3.90
2018-11-23T23:38:09.180Z,3.90
2018-11-23T23:40:38.574Z,3.70
2018-11-23T23:43:07.811Z,3.60
2018-11-23T23:45:37.498Z,3.60
2018-11-23T23:48:06.705Z,3.60
2018-11-23T23:50:35.511Z,3.70
2018-11-23T23:53:04.244Z,3.50
2018-11-23T23:55:32.886Z,3.80
2018-11-23T23:58:02.064Z,3.70
